Time;durP1;ratioP1;P1;durP2;ratioP2;P2;SDS_P1;SDS_P2;PMS_P1;PMS_P2;Temp;Humidity;BMP_temperature;BMP_pressure;BME280_temperature;BME280_humidity;BME280_pressure;Samples;Min_cycle;Max_cycle;Signal;HPM_P1;HPM_P2
2023/06/17 00:00:13;;;;;;;;;;;11.60;99.90;;;;;;5015561;28;20328;-73
2023/06/17 00:02:38;;;;;;;;;;;11.60;99.90;;;;;;5015993;28;20281;-73
2023/06/17 00:05:05;;;;;;;;;;;11.60;99.90;;;;;;5014382;28;19969;-72
2023/06/17 00:07:30;;;;;;;;;;;11.60;99.90;;;;;;5015299;28;20321;-73
2023/06/17 00:09:56;;;;;;;;;;;11.70;99.90;;;;;;5015544;28;19956;-73
2023/06/17 00:12:24;;;;;;;;;;;11.60;99.90;;;;;;5015742;28;19913;-72
2023/06/17 00:14:50;;;;;;;;;;;11.70;99.90;;;;;;5030710;28;19909;-72
2023/06/17 00:17:16;;;;;;;;;;;11.70;99.90;;;;;;5014054;28;19910;-73
2023/06/17 00:19:42;;;;;;;;;;;11.60;99.90;;;;;;5030311;28;20358;-73
2023/06/17 00:22:08;;;;;;;;;;;11.50;99.90;;;;;;5015181;28;19917;-73
2023/06/17 00:24:34;;;;;;;;;;;11.40;99.90;;;;;;5015257;28;19996;-73
2023/06/17 00:27:00;;;;;;;;;;;11.30;99.90;;;;;;5015020;28;19960;-73
2023/06/17 00:29:25;;;;;;;;;;;11.30;99.90;;;;;;5015635;28;20333;-73
2023/06/17 00:31:51;;;;;;;;;;;11.20;99.90;;;;;;5030188;28;19965;-73
2023/06/17 00:34:16;;;;;;;;;;;11.20;99.90;;;;;;5015366;28;19909;-73
2023/06/17 00:36:42;;;;;;;;;;;11.30;99.90;;;;;;5013732;28;19916;-73
2023/06/17 00:39:07;;;;;;;;;;;11.30;99.90;;;;;;5015244;28;19947;-72
2023/06/17 00:41:33;;;;;;;;;;;11.40;99.90;;;;;;5014867;28;19909;-73
2023/06/17 00:43:59;;;;;;;;;;;11.40;99.90;;;;;;5014943;28;19910;-72
2023/06/17 00:46:35;;;;;;;;;;;11.50;99.90;;;;;;5014748;28;19909;-73
2023/06/17 00:49:01;;;;;;;;;;;11.50;99.90;;;;;;5015028;28;19909;-73
2023/06/17 00:51:28;;;;;;;;;;;11.50;99.90;;;;;;5014957;28;19909;-73
2023/06/17 00:53:54;;;;;;;;;;;11.50;99.90;;;;;;5015335;28;19910;-72
2023/06/17 00:56:19;;;;;;;;;;;11.50;99.90;;;;;;5034455;28;19909;-72
2023/06/17 00:58:45;;;;;;;;;;;11.40;99.90;;;;;;5034529;28;20004;-73
2023/06/17 01:01:11;;;;;;;;;;;11.40;99.90;;;;;;5034212;28;19916;-72
2023/06/17 01:03:36;;;;;;;;;;;11.40;99.90;;;;;;5032863;28;19909;-72
2023/06/17 01:06:07;;;;;;;;;;;11.40;99.90;;;;;;5034440;28;19913;-72
2023/06/17 01:08:37;;;;;;;;;;;11.40;99.90;;;;;;5034244;28;19962;-72
2023/06/17 01:11:12;;;;;;;;;;;11.40;99.90;;;;;;5032811;28;19912;-72
2023/06/17 01:13:41;;;;;;;;;;;11.40;99.90;;;;;;5033893;28;19905;-71
2023/06/17 01:16:07;;;;;;;;;;;11.50;99.90;;;;;;5034261;28;19905;-71
2023/06/17 01:18:33;;;;;;;;;;;11.50;99.90;;;;;;5033885;28;19905;-71
2023/06/17 01:20:58;;;;;;;;;;;11.50;99.90;;;;;;5033894;28;19909;-71
2023/06/17 01:23:31;;;;;;;;;;;11.40;99.90;;;;;;5034145;28;19951;-71
2023/06/17 01:25:58;;;;;;;;;;;11.40;99.90;;;;;;5034478;28;20353;-71
2023/06/17 01:28:24;;;;;;;;;;;11.40;99.90;;;;;;5034321;28;19913;-72
2023/06/17 01:30:54;;;;;;;;;;;11.30;99.90;;;;;;5032878;28;20420;-71
2023/06/17 01:33:20;;;;;;;;;;;11.30;99.90;;;;;;5016494;28;19917;-71
2023/06/17 01:35:55;;;;;;;;;;;11.30;99.90;;;;;;5033741;28;19943;-72
2023/06/17 01:38:24;;;;;;;;;;;11.30;99.90;;;;;;5032553;28;20250;-72
2023/06/17 01:40:52;;;;;;;;;;;11.30;99.90;;;;;;5034319;28;19905;-72
2023/06/17 01:43:17;;;;;;;;;;;11.30;99.90;;;;;;5034009;28;19905;-72
2023/06/17 01:45:45;;;;;;;;;;;11.30;99.90;;;;;;5033564;28;19912;-72
2023/06/17 01:48:11;;;;;;;;;;;11.30;99.90;;;;;;5033610;28;19909;-72
2023/06/17 01:50:36;;;;;;;;;;;11.30;99.90;;;;;;5033922;28;19909;-72
2023/06/17 01:53:02;;;;;;;;;;;11.20;99.90;;;;;;5033575;28;19913;-72
2023/06/17 01:55:27;;;;;;;;;;;11.10;99.90;;;;;;5033543;28;19915;-72
2023/06/17 01:57:53;;;;;;;;;;;11.00;99.90;;;;;;5033835;28;20003;-72
2023/06/17 02:00:18;;;;;;;;;;;11.00;99.90;;;;;;5034107;28;20035;-72
2023/06/17 02:02:45;;;;;;;;;;;10.90;99.90;;;;;;5033956;28;20023;-72
2023/06/17 02:05:10;;;;;;;;;;;11.00;99.90;;;;;;5033482;28;19909;-72
2023/06/17 02:07:38;;;;;;;;;;;11.00;99.90;;;;;;5033469;28;19912;-72
2023/06/17 02:10:03;;;;;;;;;;;11.00;99.90;;;;;;5037157;28;19908;-72
2023/06/17 02:12:29;;;;;;;;;;;10.90;99.90;;;;;;5037411;28;19959;-72
2023/06/17 02:14:55;;;;;;;;;;;10.90;99.90;;;;;;5035980;28;20285;-72
2023/06/17 02:17:20;;;;;;;;;;;10.80;99.90;;;;;;5037312;28;20301;-73
2023/06/17 02:19:46;;;;;;;;;;;10.80;99.90;;;;;;5037346;28;20419;-72
2023/06/17 02:22:11;;;;;;;;;;;10.90;99.90;;;;;;5037171;28;19916;-72
2023/06/17 02:24:37;;;;;;;;;;;11.00;99.90;;;;;;5037172;28;19909;-72
2023/06/17 02:27:02;;;;;;;;;;;11.00;99.90;;;;;;5037086;28;19955;-72
2023/06/17 02:29:28;;;;;;;;;;;10.90;99.90;;;;;;5037364;28;20006;-72
2023/06/17 02:31:53;;;;;;;;;;;10.90;99.90;;;;;;5037005;28;20362;-72
2023/06/17 02:34:19;;;;;;;;;;;10.80;99.90;;;;;;5035602;28;20376;-72
2023/06/17 02:36:45;;;;;;;;;;;10.80;99.90;;;;;;5036850;28;19916;-72
2023/06/17 02:39:11;;;;;;;;;;;10.70;99.90;;;;;;5036644;28;19915;-72
2023/06/17 02:41:36;;;;;;;;;;;10.70;99.90;;;;;;5036750;28;19999;-72
2023/06/17 02:44:02;;;;;;;;;;;10.70;99.90;;;;;;5036728;28;19935;-72
2023/06/17 02:46:27;;;;;;;;;;;10.70;99.90;;;;;;5036822;28;19917;-72
2023/06/17 02:48:54;;;;;;;;;;;10.70;99.90;;;;;;5036838;28;19917;-72
2023/06/17 02:51:20;;;;;;;;;;;10.70;99.90;;;;;;5035411;28;19905;-72
2023/06/17 02:53:45;;;;;;;;;;;10.60;99.90;;;;;;5036528;28;19996;-72
2023/06/17 02:56:11;;;;;;;;;;;10.60;99.90;;;;;;5036549;28;20352;-72
2023/06/17 02:58:37;;;;;;;;;;;10.60;99.90;;;;;;5035138;28;19988;-72
2023/06/17 03:01:05;;;;;;;;;;;10.50;99.90;;;;;;5036461;28;19905;-72
2023/06/17 03:03:34;;;;;;;;;;;10.50;99.90;;;;;;5035368;28;20433;-72
2023/06/17 03:06:09;;;;;;;;;;;10.40;99.90;;;;;;5035130;28;19909;-72
2023/06/17 03:08:39;;;;;;;;;;;10.40;99.90;;;;;;5034982;28;19962;-73
2023/06/17 03:11:04;;;;;;;;;;;10.40;99.90;;;;;;5036506;28;19947;-73
2023/06/17 03:13:30;;;;;;;;;;;10.30;99.90;;;;;;5036296;28;19963;-72
2023/06/17 03:15:58;;;;;;;;;;;10.30;99.90;;;;;;5036303;28;20062;-71
2023/06/17 03:18:24;;;;;;;;;;;10.30;99.90;;;;;;5036246;28;19912;-71
2023/06/17 03:20:51;;;;;;;;;;;10.40;99.90;;;;;;5034795;28;20290;-71
2023/06/17 03:23:16;;;;;;;;;;;10.40;99.90;;;;;;5035962;28;19996;-71
2023/06/17 03:25:42;;;;;;;;;;;10.40;99.90;;;;;;5036407;28;19991;-71
2023/06/17 03:28:08;;;;;;;;;;;10.50;99.90;;;;;;5036152;28;20346;-72
2023/06/17 03:30:33;;;;;;;;;;;10.50;99.90;;;;;;5035859;28;19905;-71
2023/06/17 03:32:59;;;;;;;;;;;10.50;99.90;;;;;;5035796;28;20401;-71
2023/06/17 03:35:25;;;;;;;;;;;10.60;99.90;;;;;;5036526;28;20324;-71
2023/06/17 03:37:50;;;;;;;;;;;10.60;99.90;;;;;;5035815;28;19931;-71
2023/06/17 03:40:16;;;;;;;;;;;10.50;99.90;;;;;;5035728;28;20404;-72
2023/06/17 03:42:41;;;;;;;;;;;10.50;99.90;;;;;;5035690;28;19909;-72
2023/06/17 03:45:07;;;;;;;;;;;10.50;99.90;;;;;;5035513;28;19909;-72
2023/06/17 03:47:33;;;;;;;;;;;10.40;99.90;;;;;;5035592;28;20392;-71
2023/06/17 03:49:58;;;;;;;;;;;10.40;99.90;;;;;;5035390;28;19913;-72
2023/06/17 03:52:24;;;;;;;;;;;10.40;99.90;;;;;;5035438;28;19947;-72
2023/06/17 03:54:50;;;;;;;;;;;10.30;99.90;;;;;;5035533;28;19937;-72
2023/06/17 03:57:15;;;;;;;;;;;10.40;99.90;;;;;;5035352;28;19959;-72
2023/06/17 03:59:41;;;;;;;;;;;10.40;99.90;;;;;;5035848;28;19909;-72
2023/06/17 04:02:07;;;;;;;;;;;10.40;99.90;;;;;;5035637;28;19909;-72
2023/06/17 04:04:34;;;;;;;;;;;10.50;99.90;;;;;;5035204;28;19986;-72
2023/06/17 04:07:00;;;;;;;;;;;10.50;99.90;;;;;;5035255;28;19909;-73
2023/06/17 04:09:26;;;;;;;;;;;10.60;99.90;;;;;;5035054;28;20002;-72
2023/06/17 04:11:51;;;;;;;;;;;10.70;99.90;;;;;;5035363;28;19913;-73
2023/06/17 04:14:17;;;;;;;;;;;10.70;99.90;;;;;;5035308;28;19905;-73
2023/06/17 04:16:43;;;;;;;;;;;10.80;99.90;;;;;;5035251;28;19963;-73
2023/06/17 04:19:13;;;;;;;;;;;10.70;99.90;;;;;;5035034;28;20360;-73
2023/06/17 04:21:42;;;;;;;;;;;10.70;99.90;;;;;;5034961;28;19995;-72
2023/06/17 04:24:07;;;;;;;;;;;10.70;99.90;;;;;;5035008;28;19944;-73
2023/06/17 04:26:33;;;;;;;;;;;10.70;99.90;;;;;;5034899;28;19916;-73
2023/06/17 04:29:00;;;;;;;;;;;10.70;99.90;;;;;;5034974;28;19916;-73
2023/06/17 04:31:27;;;;;;;;;;;10.70;99.90;;;;;;5034874;28;19955;-73
2023/06/17 04:33:53;;;;;;;;;;;10.70;99.90;;;;;;5033311;28;19905;-72
2023/06/17 04:36:19;;;;;;;;;;;10.70;99.90;;;;;;5034599;28;19916;-73
2023/06/17 04:38:44;;;;;;;;;;;10.70;99.90;;;;;;5035092;28;19958;-73
2023/06/17 04:41:11;;;;;;;;;;;10.70;99.90;;;;;;5034477;28;19912;-73
2023/06/17 04:43:36;;;;;;;;;;;10.60;99.90;;;;;;5034402;28;19971;-73
2023/06/17 04:46:02;;;;;;;;;;;10.70;99.90;;;;;;5034705;28;20423;-73
2023/06/17 04:48:28;;;;;;;;;;;10.70;99.90;;;;;;5034279;28;19913;-73
2023/06/17 04:50:57;;;;;;;;;;;10.70;99.90;;;;;;5034357;28;19955;-73
2023/06/17 04:53:23;;;;;;;;;;;10.80;99.90;;;;;;5034218;28;19905;-73
2023/06/17 04:55:49;;;;;;;;;;;10.80;99.90;;;;;;5034080;28;19912;-72
2023/06/17 04:58:15;;;;;;;;;;;10.90;99.90;;;;;;5034810;28;20346;-73
2023/06/17 05:00:40;;;;;;;;;;;10.90;99.90;;;;;;5034137;28;19950;-73
2023/06/17 05:03:06;;;;;;;;;;;11.00;99.90;;;;;;5032848;28;19987;-72
2023/06/17 05:05:31;;;;;;;;;;;11.00;99.90;;;;;;5032675;28;20365;-72
2023/06/17 05:07:57;;;;;;;;;;;11.10;99.90;;;;;;5033938;28;19909;-73
2023/06/17 05:10:22;;;;;;;;;;;11.20;99.90;;;;;;5033464;28;19913;-72
2023/06/17 05:12:48;;;;;;;;;;;11.30;99.90;;;;;;5033301;28;19909;-72
2023/06/17 05:15:13;;;;;;;;;;;11.30;99.90;;;;;;5031342;28;19909;-72
2023/06/17 05:17:39;;;;;;;;;;;11.40;99.90;;;;;;5032625;28;19909;-72
2023/06/17 05:20:06;;;;;;;;;;;11.40;99.90;;;;;;5032577;28;19917;-72
2023/06/17 05:22:31;;;;;;;;;;;11.40;99.90;;;;;;5032610;28;20285;-72
2023/06/17 05:24:57;;;;;;;;;;;11.40;99.90;;;;;;5032538;28;19909;-72
2023/06/17 05:27:23;;;;;;;;;;;11.40;99.90;;;;;;5032479;28;19905;-72
2023/06/17 05:29:50;;;;;;;;;;;11.40;99.90;;;;;;5032206;28;19913;-72
2023/06/17 05:32:15;;;;;;;;;;;11.40;99.90;;;;;;5030957;28;19947;-72
2023/06/17 05:34:41;;;;;;;;;;;11.50;99.90;;;;;;5031998;28;19948;-72
2023/06/17 05:37:06;;;;;;;;;;;11.50;99.90;;;;;;5032296;28;20023;-72
2023/06/17 05:39:32;;;;;;;;;;;11.50;99.90;;;;;;5032161;28;20353;-72
2023/06/17 05:41:57;;;;;;;;;;;11.50;99.90;;;;;;5030897;28;19914;-72
2023/06/17 05:44:23;;;;;;;;;;;11.50;99.90;;;;;;5034755;28;24129;-72
2023/06/17 05:46:48;;;;;;;;;;;11.50;99.90;;;;;;5036289;28;19988;-73
2023/06/17 05:49:15;;;;;;;;;;;11.50;99.90;;;;;;5036196;28;20357;-73
2023/06/17 05:51:41;;;;;;;;;;;11.50;99.90;;;;;;5034957;28;20368;-73
2023/06/17 05:54:06;;;;;;;;;;;11.50;99.90;;;;;;5036151;28;19945;-73
2023/06/17 05:56:32;;;;;;;;;;;11.50;99.90;;;;;;5036355;28;20361;-73
2023/06/17 05:58:57;;;;;;;;;;;11.60;99.90;;;;;;5036401;28;24065;-73
2023/06/17 06:01:23;;;;;;;;;;;11.60;99.90;;;;;;5036100;28;19916;-73
2023/06/17 06:03:49;;;;;;;;;;;11.70;99.90;;;;;;5036175;28;20305;-72
2023/06/17 06:06:14;;;;;;;;;;;11.70;99.90;;;;;;5036501;28;19909;-73
2023/06/17 06:08:40;;;;;;;;;;;11.70;99.90;;;;;;5034783;28;19913;-72
2023/06/17 06:11:05;;;;;;;;;;;11.80;99.90;;;;;;5036135;28;20304;-73
2023/06/17 06:13:31;;;;;;;;;;;11.80;99.90;;;;;;5035836;28;20031;-73
2023/06/17 06:15:57;;;;;;;;;;;11.90;99.90;;;;;;5035790;28;20069;-73
2023/06/17 06:18:23;;;;;;;;;;;12.00;99.90;;;;;;5036207;28;20036;-73
2023/06/17 06:20:48;;;;;;;;;;;12.10;99.90;;;;;;5035699;28;19917;-73
2023/06/17 06:23:14;;;;;;;;;;;12.10;99.90;;;;;;5035540;28;20054;-73
2023/06/17 06:25:40;;;;;;;;;;;12.20;99.90;;;;;;5034615;28;20060;-73
2023/06/17 06:28:05;;;;;;;;;;;12.30;99.90;;;;;;5036644;28;20037;-73
2023/06/17 06:30:31;;;;;;;;;;;12.40;99.90;;;;;;5036710;28;20042;-73
2023/06/17 06:32:57;;;;;;;;;;;12.50;99.90;;;;;;5036916;28;20075;-73
2023/06/17 06:35:23;;;;;;;15.00;10.93;;;12.70;99.90;;;;;;5036415;28;20130;-73
2023/06/17 06:37:48;;;;;;;15.45;12.18;;;12.70;99.90;;;;;;5036433;28;20100;-73
2023/06/17 06:40:14;;;;;;;16.20;12.05;;;12.80;99.90;;;;;;5035238;28;20465;-73
2023/06/17 06:42:41;;;;;;;15.18;12.40;;;12.80;99.90;;;;;;5037192;28;20437;-73
2023/06/17 06:45:10;;;;;;;17.40;12.75;;;12.80;99.90;;;;;;5036132;28;20053;-73
2023/06/17 06:47:35;;;;;;;18.70;14.05;;;12.90;99.90;;;;;;5035317;28;20029;-73
2023/06/17 06:50:01;;;;;;;22.27;14.80;;;13.00;99.90;;;;;;5036104;28;20083;-73
2023/06/17 06:52:26;;;;;;;15.75;12.93;;;13.00;99.90;;;;;;5036537;28;20072;-73
2023/06/17 06:54:52;;;;;;;23.17;16.30;;;13.10;99.90;;;;;;5035720;28;20021;-73
2023/06/17 06:57:18;;;;;;;18.85;15.60;;;13.20;99.90;;;;;;5036119;28;20033;-73
2023/06/17 06:59:43;;;;;;;17.15;14.48;;;13.20;99.90;;;;;;5036527;28;20038;-74
2023/06/17 07:02:09;;;;;;;14.32;11.77;;;13.30;99.90;;;;;;5036300;28;20030;-74
2023/06/17 07:04:35;;;;;;;16.73;12.27;;;13.40;99.90;;;;;;5036207;28;20029;-73
2023/06/17 07:07:02;;;;;;;14.98;12.13;;;13.50;99.90;;;;;;5034858;28;20035;-74
2023/06/17 07:09:28;;;;;;;16.58;13.43;;;13.60;99.90;;;;;;5018318;28;20033;-73
2023/06/17 07:11:54;;;;;;;16.88;13.65;;;13.80;99.90;;;;;;5035821;28;20486;-74
2023/06/17 07:14:19;;;;;;;18.90;15.65;;;14.00;99.90;;;;;;5035687;28;20389;-73
2023/06/17 07:16:45;;;;;;;18.55;14.25;;;14.10;99.90;;;;;;5036027;28;20041;-73
2023/06/17 07:19:11;;;;;;;18.55;15.43;;;14.20;99.90;;;;;;5035986;28;20068;-74
2023/06/17 07:21:36;;;;;;;23.50;18.42;;;14.40;99.90;;;;;;5035662;28;20034;-73
2023/06/17 07:24:02;;;;;;;20.95;17.35;;;14.50;99.90;;;;;;5034345;28;20374;-73
2023/06/17 07:26:28;;;;;;;21.55;17.67;;;14.70;99.90;;;;;;5034271;28;20037;-74
2023/06/17 07:28:54;;;;;;;21.17;16.58;;;14.80;99.90;;;;;;5035454;28;20030;-74
2023/06/17 07:31:20;;;;;;;16.00;13.70;;;15.00;99.90;;;;;;5034242;28;20030;-73
2023/06/17 07:33:45;;;;;;;18.45;15.30;;;15.00;99.90;;;;;;5035376;28;20437;-73
2023/06/17 07:36:11;;;;;;;19.92;16.23;;;15.20;99.90;;;;;;5034135;28;20026;-74
2023/06/17 07:38:37;;;;;;;15.93;13.73;;;15.30;99.90;;;;;;5035292;28;20029;-74
2023/06/17 07:41:02;;;;;;;18.15;14.60;;;15.30;99.90;;;;;;5035327;28;20498;-74
2023/06/17 07:43:28;;;;;;;20.60;16.90;;;15.30;99.90;;;;;;5034074;28;20490;-74
2023/06/17 07:45:54;;;;;;;21.92;16.98;;;15.40;99.90;;;;;;5035321;28;20030;-73
2023/06/17 07:48:20;;;;;;;16.63;13.65;;;15.40;99.90;;;;;;5035645;28;20034;-73
2023/06/17 07:50:45;;;;;;;20.45;17.33;;;15.50;99.90;;;;;;5035071;28;20510;-74
2023/06/17 07:53:11;;;;;;;20.67;17.38;;;15.50;99.90;;;;;;5035065;28;20440;-73
2023/06/17 07:55:37;;;;;;;15.82;13.23;;;15.60;99.90;;;;;;5033820;28;20017;-73
2023/06/17 07:58:03;;;;;;;14.77;11.68;;;15.70;99.90;;;;;;5035568;28;20025;-74
2023/06/17 08:00:29;;;;;;;11.30;9.25;;;15.70;99.90;;;;;;5035165;28;20139;-74
2023/06/17 08:02:55;;;;;;;12.38;9.68;;;15.70;99.90;;;;;;5035147;28;20053;-73
2023/06/17 08:05:21;;;;;;;9.05;7.25;;;15.70;99.90;;;;;;5033113;28;20064;-74
2023/06/17 08:07:47;;;;;;;11.73;7.40;;;15.80;99.90;;;;;;5034369;28;20053;-73
2023/06/17 08:10:12;;;;;;;8.57;6.82;;;16.10;99.90;;;;;;5034609;28;20061;-74
2023/06/17 08:12:38;;;;;;;8.02;6.53;;;16.30;99.90;;;;;;5016966;28;20026;-74
2023/06/17 08:15:05;;;;;;;8.60;6.18;;;16.40;99.90;;;;;;5034680;28;20025;-74
2023/06/17 08:17:31;;;;;;;7.90;6.18;;;16.50;99.90;;;;;;5034604;28;20045;-74
2023/06/17 08:19:57;;;;;;;6.45;5.22;;;16.60;99.90;;;;;;5033208;28;20068;-74
2023/06/17 08:22:22;;;;;;;7.43;5.30;;;16.60;99.90;;;;;;5034489;28;20034;-73
2023/06/17 08:24:48;;;;;;;6.43;5.50;;;16.70;99.90;;;;;;5034287;28;20033;-73
2023/06/17 08:27:14;;;;;;;7.32;5.20;;;16.70;99.90;;;;;;5034344;28;20030;-73
2023/06/17 08:29:40;;;;;;;6.57;4.85;;;16.70;99.90;;;;;;5035229;28;20425;-73
2023/06/17 08:32:06;;;;;;;6.90;5.03;;;16.70;99.90;;;;;;5035401;28;20495;-73
2023/06/17 08:34:32;;;;;;;6.55;5.18;;;16.70;99.90;;;;;;5033287;28;20044;-73
2023/06/17 08:37:04;;;;;;;7.75;5.35;;;16.80;99.90;;;;;;5033410;28;20024;-73
2023/06/17 08:39:31;;;;;;;6.40;5.18;;;17.10;99.90;;;;;;5023418;28;20033;-73
2023/06/17 08:41:57;;;;;;;6.70;5.05;;;17.30;99.90;;;;;;5026853;28;20029;-73
2023/06/17 08:44:25;;;;;;;9.50;5.07;;;17.50;99.90;;;;;;5034896;28;20034;-74
2023/06/17 08:46:54;;;;;;;7.35;5.43;;;17.80;99.90;;;;;;5034493;28;20469;-73
2023/06/17 08:49:21;;;;;;;6.80;5.22;;;18.00;99.90;;;;;;5034049;28;20496;-73
2023/06/17 08:51:50;;;;;;;7.28;5.60;;;18.00;99.90;;;;;;5033751;28;20079;-73
2023/06/17 08:54:16;;;;;;;7.28;5.03;;;18.10;99.90;;;;;;5033908;28;20036;-73
2023/06/17 08:56:44;;;;;;;8.43;5.78;;;18.10;99.90;;;;;;5032626;28;20030;-73
2023/06/17 08:59:10;;;;;;;6.80;4.82;;;18.10;99.90;;;;;;5033786;28;20036;-73
2023/06/17 09:01:38;;;;;;;6.55;4.90;;;18.20;99.90;;;;;;5032629;28;20022;-74
2023/06/17 09:04:05;;;;;;;9.18;6.03;;;18.30;99.90;;;;;;5034176;28;20025;-73
2023/06/17 09:06:31;;;;;;;9.30;5.40;;;18.40;99.90;;;;;;5033552;28;20091;-73
2023/06/17 09:08:58;;;;;;;8.35;5.18;;;18.50;99.90;;;;;;5033936;28;20402;-73
2023/06/17 09:11:26;;;;;;;6.82;5.30;;;18.50;99.90;;;;;;5033874;28;20100;-74
2023/06/17 09:13:53;;;;;;;10.07;4.72;;;18.60;99.90;;;;;;5033773;28;20496;-73
2023/06/17 09:16:34;;;;;;;8.40;5.00;;;18.80;99.90;;;;;;5034358;28;20416;-74
2023/06/17 09:19:05;;;;;;;5.10;3.90;;;18.80;99.90;;;;;;5034567;28;20037;-75
2023/06/17 09:21:32;;;;;;;6.60;4.40;;;18.80;99.90;;;;;;5048633;28;19916;-74
2023/06/17 09:23:59;;;;;;;6.03;4.43;;;18.90;99.90;;;;;;5042948;28;20465;-73
2023/06/17 09:26:29;;;;;;;6.00;4.47;;;18.90;99.90;;;;;;5037828;28;20116;-75
2023/06/17 09:29:03;;;;;;;5.77;4.40;;;19.00;99.90;;;;;;5030846;28;20030;-73
2023/06/17 09:31:31;;;;;;;5.27;4.10;;;19.00;99.90;;;;;;5031657;28;20099;-73
2023/06/17 09:33:58;;;;;;;7.47;4.25;;;19.00;99.90;;;;;;5032441;28;20500;-74
2023/06/17 09:36:25;;;;;;;7.20;4.40;;;19.10;99.90;;;;;;5032867;28;20481;-74
2023/06/17 09:38:51;;;;;;;;;;;19.30;99.90;;;;;;5032610;28;20058;-74
2023/06/17 09:41:18;;;;;;;;;;;19.50;99.90;;;;;;5032855;28;20116;-74
2023/06/17 09:43:54;;;;;;;;;;;19.50;99.90;;;;;;5032493;28;19909;-74
2023/06/17 09:46:35;;;;;;;;;;;19.50;99.90;;;;;;5032393;28;19909;-74
2023/06/17 09:49:02;;;;;;;;;;;19.50;99.90;;;;;;5033219;28;20044;-75
2023/06/17 09:51:36;;;;;;;;;;;19.60;99.90;;;;;;5032529;28;19909;-71
2023/06/17 09:54:02;;;;;;;;;;;19.70;99.90;;;;;;5032034;28;20036;-71
2023/06/17 09:56:31;;;;;;;;;;;19.70;99.90;;;;;;5031766;28;20438;-72
2023/06/17 09:58:57;;;;;;;;;;;19.70;99.90;;;;;;5031224;28;20341;-72
2023/06/17 10:01:24;;;;;;;;;;;19.70;99.90;;;;;;5031450;28;19909;-71
2023/06/17 10:03:50;;;;;;;;;;;19.70;99.90;;;;;;5031485;28;20272;-71
2023/06/17 10:06:19;;;;;;;;;;;19.70;99.90;;;;;;5031323;28;24180;-71
2023/06/17 10:08:47;;;;;;;;;;;19.70;99.90;;;;;;5031159;28;19913;-72
2023/06/17 10:11:13;;;;;;;;;;;19.70;99.90;;;;;;5030822;28;19909;-71
2023/06/17 10:13:40;;;;;;;;;;;19.80;99.90;;;;;;5031467;28;19905;-72
2023/06/17 10:16:08;;;;;;;;;;;19.90;99.90;;;;;;5031284;28;19909;-71
2023/06/17 10:18:35;;;;;;;;;;;19.90;99.90;;;;;;4991789;28;1130481;-73
2023/06/17 10:21:02;;;;;;;;;;;20.00;99.90;;;;;;5033211;28;19955;-72
2023/06/17 10:23:28;;;;;;;;;;;20.00;99.90;;;;;;5033288;28;19905;-71
2023/06/17 10:25:53;;;;;;;;;;;20.20;99.90;;;;;;5033196;28;19985;-71
2023/06/17 10:28:19;;;;;;;;;;;20.50;97.30;;;;;;5033213;28;19909;-72
2023/06/17 10:30:48;;;;;;;;;;;20.60;96.40;;;;;;5036359;28;19909;-71
2023/06/17 10:33:13;;;;;;;;;;;20.90;96.90;;;;;;5037251;28;19928;-72
2023/06/17 10:35:40;;;;;;;;;;;21.30;96.70;;;;;;5036906;28;20357;-71
2023/06/17 10:38:10;;;;;;;;;;;21.50;95.30;;;;;;5036842;28;20415;-72
2023/06/17 10:40:39;;;;;;;;;;;21.70;95.70;;;;;;5036881;28;19909;-72
2023/06/17 10:43:05;;;;;;;;;;;21.90;92.10;;;;;;5036530;28;20427;-72
2023/06/17 10:45:49;;;;;;;;;;;22.10;87.40;;;;;;5036476;28;19999;-73
2023/06/17 10:48:16;;;;;;;;;;;22.10;90.90;;;;;;5035964;28;19936;-73
2023/06/17 10:50:42;;;;;;;;;;;22.00;91.10;;;;;;5034249;28;19913;-73
2023/06/17 10:53:08;;;;;;;;;;;21.90;86.50;;;;;;5036525;28;20039;-73
2023/06/17 10:55:34;;;;;;;;;;;21.80;85.10;;;;;;5035093;28;19956;-73
2023/06/17 10:57:59;;;;;;;;;;;21.90;90.20;;;;;;5036605;28;19912;-73
2023/06/17 11:00:25;;;;;;;;;;;22.10;88.30;;;;;;5036412;28;20331;-71
2023/06/17 11:02:51;;;;;;;;;;;22.20;85.00;;;;;;5036417;28;19909;-72
2023/06/17 11:05:16;;;;;;;;;;;22.40;86.00;;;;;;5036378;28;19909;-73
2023/06/17 11:07:42;;;;;;;;;;;22.40;80.20;;;;;;5036299;28;20300;-72
2023/06/17 11:10:08;;;;;;;;;;;22.50;84.10;;;;;;5035034;28;20395;-72
2023/06/17 11:12:39;;;;;;;;;;;22.60;82.10;;;;;;5036225;28;19909;-73
2023/06/17 11:15:07;;;;;;;;;;;22.70;81.70;;;;;;5037500;28;20337;-73
2023/06/17 11:17:33;;;;;;;;;;;22.90;80.00;;;;;;5035798;28;19996;-72
2023/06/17 11:19:58;;;;;;;;;;;22.80;80.00;;;;;;5036085;28;19971;-71
2023/06/17 11:22:24;;;;;;;;;;;22.60;76.30;;;;;;5036251;28;19952;-72
2023/06/17 11:24:49;;;;;;;;;;;22.50;76.00;;;;;;5034333;28;19913;-72
2023/06/17 11:27:15;;;;;;;;;;;22.30;77.10;;;;;;5051225;28;19917;-72
2023/06/17 11:29:44;;;;;;;;;;;22.30;77.70;;;;;;5041392;28;19920;-72
2023/06/17 11:32:10;;;;;;;;;;;22.20;77.40;;;;;;5044788;28;19935;-72
2023/06/17 11:34:35;;;;;;;;;;;22.20;77.30;;;;;;5050018;28;20015;-71
2023/06/17 11:37:02;;;;;;;;;;;22.20;78.70;;;;;;5039094;28;19995;-72
2023/06/17 11:39:30;;;;;;;;;;;22.20;77.80;;;;;;5049822;28;20307;-71
2023/06/17 11:42:03;;;;;;;;;;;22.20;77.70;;;;;;5043221;28;19909;-72
2023/06/17 11:44:29;;;;;;;;;;;22.30;80.00;;;;;;5049308;28;19909;-72
2023/06/17 11:46:56;;;;;;;;;;;22.50;78.40;;;;;;5050259;28;19916;-72
2023/06/17 11:49:27;;;;;;;;;;;22.50;75.90;;;;;;5055339;28;19913;-72
2023/06/17 11:51:53;;;;;;;;;;;22.50;73.50;;;;;;5050130;28;20292;-72
2023/06/17 11:54:21;;;;;;;;;;;22.50;72.50;;;;;;5058280;28;19913;-72
2023/06/17 11:56:50;;;;;;;;;;;22.40;75.90;;;;;;5046831;28;19924;-72
2023/06/17 11:59:18;;;;;;;;;;;22.40;75.10;;;;;;5051264;28;19962;-72
2023/06/17 12:01:44;;;;;;;;;;;22.70;75.10;;;;;;5055164;28;19995;-72
2023/06/17 12:04:09;;;;;;;;;;;23.00;75.60;;;;;;5051746;28;19939;-71
2023/06/17 12:06:36;;;;;;;;;;;23.30;71.00;;;;;;5039742;28;19916;-71
2023/06/17 12:09:06;;;;;;;;;;;23.50;72.50;;;;;;5045635;28;19944;-72
2023/06/17 12:11:32;;;;;;;;;;;23.50;70.80;;;;;;5026946;28;19915;-72
2023/06/17 12:13:58;;;;;;;;;;;23.70;70.50;;;;;;5043462;28;19909;-73
2023/06/17 12:16:25;;;;;;;;;;;23.90;69.50;;;;;;5034712;28;20067;-73
2023/06/17 12:18:51;;;;;;;;;;;24.00;70.00;;;;;;5035054;28;19921;-72
2023/06/17 12:21:20;;;;;;;;;;;24.00;70.30;;;;;;5035251;28;19995;-72
2023/06/17 12:23:48;;;;;;;;;;;23.90;71.40;;;;;;5033682;28;19905;-72
2023/06/17 12:26:15;;;;;;;;;;;23.70;68.60;;;;;;5034837;28;19905;-72
2023/06/17 12:28:40;;;;;;;;;;;23.50;71.60;;;;;;5034164;28;20391;-73
2023/06/17 12:31:08;;;;;;;;;;;23.40;72.20;;;;;;5034403;28;19913;-73
2023/06/17 12:33:34;;;;;;;;;;;23.30;73.30;;;;;;5033388;28;20372;-73
2023/06/17 12:35:59;;;;;;;;;;;23.20;73.70;;;;;;5035188;28;19912;-73
2023/06/17 12:38:28;;;;;;;;;;;23.10;71.90;;;;;;5045158;28;19920;-71
2023/06/17 12:40:53;;;;;;;;;;;22.90;71.60;;;;;;5053855;28;19985;-72
2023/06/17 12:43:19;;;;;;;;;;;22.60;70.00;;;;;;5054787;28;20420;-72
2023/06/17 12:45:44;;;;;;;;;;;22.50;73.00;;;;;;5052894;28;20331;-72
2023/06/17 12:48:11;;;;;;;;;;;22.40;73.60;;;;;;5053238;28;19938;-72
2023/06/17 12:50:36;;;;;;;;;;;22.40;73.90;;;;;;5039297;28;19952;-72
2023/06/17 12:53:02;;;;;;;;;;;22.40;72.60;;;;;;5017112;28;19921;-72
2023/06/17 12:55:27;;;;;;;;;;;22.30;71.80;;;;;;5018212;28;19913;-72
2023/06/17 12:57:53;;;;;;;;;;;22.30;73.60;;;;;;5034536;28;20316;-72
2023/06/17 13:00:18;;;;;;;;;;;22.30;74.00;;;;;;5034213;28;20423;-72
2023/06/17 13:02:44;;;;;;;;;;;22.60;75.80;;;;;;5033122;28;20012;-72
2023/06/17 13:05:10;;;;;;;;;;;22.70;76.30;;;;;;5034092;28;19916;-72
2023/06/17 13:07:35;;;;;;;;;;;23.10;77.20;;;;;;5033909;28;19905;-73
2023/06/17 13:10:01;;;;;;;;;;;23.50;74.90;;;;;;5032962;28;19917;-72
2023/06/17 13:12:27;;;;;;;;;;;23.80;74.90;;;;;;5034293;28;20304;-72
2023/06/17 13:14:52;;;;;;;;;;;24.20;74.20;;;;;;5032681;28;20003;-72
2023/06/17 13:17:18;;;;;;;;;;;24.50;71.20;;;;;;5033949;28;19994;-73
2023/06/17 13:19:43;;;;;;;;;;;24.60;68.30;;;;;;5033776;28;19917;-72
2023/06/17 13:22:09;;;;;;;;;;;24.70;67.50;;;;;;5034132;28;20365;-72
2023/06/17 13:24:34;;;;;;;;;;;24.70;67.70;;;;;;5032862;28;20347;-72
2023/06/17 13:27:00;;;;;;;;;;;24.90;68.10;;;;;;5033847;28;20331;-72
2023/06/17 13:29:26;;;;;;;;;;;25.00;68.10;;;;;;5034289;28;19913;-72
2023/06/17 13:31:51;;;;;;;;;;;24.90;62.50;;;;;;5034397;28;20349;-72
2023/06/17 13:34:18;;;;;;;;;;;24.70;63.30;;;;;;5033645;28;19912;-72
2023/06/17 13:36:45;;;;;;;;;;;24.40;63.40;;;;;;5033670;28;19909;-72
2023/06/17 13:39:11;;;;;;;;;;;24.20;63.10;;;;;;5033685;28;19909;-72
2023/06/17 13:41:36;;;;;;;;;;;23.90;63.60;;;;;;5032421;28;19916;-72
2023/06/17 13:44:02;;;;;;;;;;;23.70;62.30;;;;;;5033499;28;20167;-72
2023/06/17 13:46:28;;;;;;;;;;;23.60;65.70;;;;;;5032361;28;19920;-71